Archival Weather

Norman Y Mineta San Jose Intl

San Jose, California (KSJC)

Report from: Sunday, February 11, 2024 4:53 PM PST
Current time: Monday, June 24, 2024 2:43 AM PDT

Current weather – Weather history – Daily summaries
Weather forecast

Temperature15.6°C (60.1°F)
Dew point6.7°C (44.1°F)
Winds 9 kts (4.6 m/s, 10.4 mph) Northwest (320°)
Visibility10 mi. (16.1 km)
Clouds Few clouds 5,000 ft. (1,524 m)
Few clouds 12,000 ft. (3,658 m)
Few clouds 20,000 ft. (6,096 m)
Altimeter30.18 in.Hg (1022 mB)
Relative humidity55 %
Density altitude-81 ft. (-25 m)
Sea-level pressure102.2 kPa (1022 mB, 30.18 in.Hg)
Remarks Automated weather observing station with precipitation discriminator
Flight conditions Visual Meteorological Conditions
Raw dataKSJC 120053Z 32009KT 10SM FEW050 FEW120 FEW200 16/07 A3018 RMK AO2 SLP220 T01560067
An error has occurred. This application may no longer respond until reloaded. Reload 🗙